Terminal Aerodrome Forecast
Issued by NWS Northern Indiana

Home | Current Version | Previous Version | Graphics & Text | Print | Product List | Glossary On
Versions: 1 2 3 4 5 6 7 8 9 10 11 12 13 14 15 16 17
566
FTUS43 KIWX 191946 AAA
TAFFWA
TAF AMD
KFWA 191946Z 1920/2018 28005KT P6SM VCSH BKN050
     FM200200 13003KT P6SM OVC010
     FM200600 VRB02KT 2SM BR BKN004
     FM201400 21006KT P6SM SCT015=

USA.gov is the U.S. government's official web portal to all federal, state and local government web resources and services.